Belleville, Indiana
Current Conditions -  °F | °C
As of 9:54 PM on Friday 19 Dec 2014 (Local Time) from KIND Reporting Station
Overcast Overcast  
Wind Chill: 29°   Ceiling: 2400
Heat Index: 29°   Visibility: 7mi
Dew Point: 24°   Wind: 3mph
Humidity: 82%   Direction: 60°ENE
Pressure: 30.25"   Gusts: NA
Location:  39.6566°N, 86.5049°W
Report Text: KIND 200254Z 06003KT 7SM OVC024 M02/M04 A3025 RMK AO2 SLP255 T10171044 58009
Loading
Personal Weather Stations






























Interactive Weather Map New forecast layout! Learn more

10-Day Weather Forecast

Advertisements
Track Severe Weather on mobile